sensor_id;sensor_type;location;lat;lon;timestamp;pressure;altitude;pressure_sealevel;temperature;humidity
71966;BME280;59836;52.132;5.442;2022-12-08T00:01:28;101166.69;;;3.53;94.79
71966;BME280;59836;52.132;5.442;2022-12-08T00:03:57;101146.88;;;3.54;94.88
71966;BME280;59836;52.132;5.442;2022-12-08T00:09:32;101135.94;;;3.56;94.77
71966;BME280;59836;52.132;5.442;2022-12-08T00:12:13;101136.56;;;3.58;94.33
71966;BME280;59836;52.132;5.442;2022-12-08T00:14:44;101132.84;;;3.59;95.08
71966;BME280;59836;52.132;5.442;2022-12-08T00:17:13;101134.25;;;3.61;94.57
71966;BME280;59836;52.132;5.442;2022-12-08T00:19:40;101124.19;;;3.57;94.59
71966;BME280;59836;52.132;5.442;2022-12-08T00:22:08;101123.75;;;3.60;94.63
71966;BME280;59836;52.132;5.442;2022-12-08T00:24:37;101132.41;;;3.62;94.90
71966;BME280;59836;52.132;5.442;2022-12-08T00:27:08;101134.06;;;3.63;94.84
71966;BME280;59836;52.132;5.442;2022-12-08T00:29:35;101124.97;;;3.64;94.69
71966;BME280;59836;52.132;5.442;2022-12-08T00:32:01;101119.19;;;3.67;95.19
71966;BME280;59836;52.132;5.442;2022-12-08T00:34:29;101119.19;;;3.67;95.31
71966;BME280;59836;52.132;5.442;2022-12-08T00:36:56;101110.53;;;3.65;95.10
71966;BME280;59836;52.132;5.442;2022-12-08T00:39:22;101113.81;;;3.67;95.01
71966;BME280;59836;52.132;5.442;2022-12-08T00:41:48;101104.72;;;3.68;94.92
71966;BME280;59836;52.132;5.442;2022-12-08T00:44:33;101102.66;;;3.70;94.70
71966;BME280;59836;52.132;5.442;2022-12-08T00:47:00;101090.28;;;3.69;94.65
71966;BME280;59836;52.132;5.442;2022-12-08T00:49:26;101087.59;;;3.69;94.97
71966;BME280;59836;52.132;5.442;2022-12-08T00:51:52;101085.34;;;3.66;95.02
71966;BME280;59836;52.132;5.442;2022-12-08T00:54:19;101087.41;;;3.64;94.95
71966;BME280;59836;52.132;5.442;2022-12-08T00:56:46;101080.41;;;3.63;94.99
71966;BME280;59836;52.132;5.442;2022-12-08T00:59:13;101079.56;;;3.62;95.16
71966;BME280;59836;52.132;5.442;2022-12-08T01:01:39;101078.16;;;3.60;94.72
71966;BME280;59836;52.132;5.442;2022-12-08T01:04:08;101069.50;;;3.58;94.71
71966;BME280;59836;52.132;5.442;2022-12-08T01:06:35;101078.38;;;3.58;94.74
71966;BME280;59836;52.132;5.442;2022-12-08T01:09:03;101074.28;;;3.56;95.39
71966;BME280;59836;52.132;5.442;2022-12-08T01:11:29;101072.63;;;3.54;95.11
71966;BME280;59836;52.132;5.442;2022-12-08T01:13:56;101067.28;;;3.54;95.17
71966;BME280;59836;52.132;5.442;2022-12-08T01:16:26;101068.31;;;3.53;94.65
71966;BME280;59836;52.132;5.442;2022-12-08T01:18:54;101067.28;;;3.54;95.35
71966;BME280;59836;52.132;5.442;2022-12-08T01:21:21;101075.31;;;3.54;95.31
71966;BME280;59836;52.132;5.442;2022-12-08T01:23:47;101074.88;;;3.58;94.90
71966;BME280;59836;52.132;5.442;2022-12-08T01:26:15;101067.63;;;3.58;95.04
71966;BME280;59836;52.132;5.442;2022-12-08T01:28:42;101067.63;;;3.58;95.06
71966;BME280;59836;52.132;5.442;2022-12-08T01:31:14;101059.41;;;3.60;95.33
71966;BME280;59836;52.132;5.442;2022-12-08T01:33:42;101056.09;;;3.58;95.27
71966;BME280;59836;52.132;5.442;2022-12-08T01:36:22;101057.75;;;3.59;95.06
71966;BME280;59836;52.132;5.442;2022-12-08T01:38:50;101056.72;;;3.60;95.10
71966;BME280;59836;52.132;5.442;2022-12-08T01:41:18;101067.63;;;3.58;95.08
71966;BME280;59836;52.132;5.442;2022-12-08T01:43:55;101075.47;;;3.60;95.11
71966;BME280;59836;52.132;5.442;2022-12-08T01:46:22;101076.69;;;3.64;95.61
71966;BME280;59836;52.132;5.442;2022-12-08T01:48:50;101072.13;;;3.64;95.19
71966;BME280;59836;52.132;5.442;2022-12-08T01:51:19;101061.63;;;3.63;95.13
71966;BME280;59836;52.132;5.442;2022-12-08T01:53:46;101065.97;;;3.64;95.44
71966;BME280;59836;52.132;5.442;2022-12-08T01:56:21;101067.59;;;3.65;95.59
71966;BME280;59836;52.132;5.442;2022-12-08T01:58:51;101051.50;;;3.65;95.47
71966;BME280;59836;52.132;5.442;2022-12-08T02:01:19;101060.59;;;3.64;95.37
71966;BME280;59836;52.132;5.442;2022-12-08T02:03:50;101060.59;;;3.64;94.87
71966;BME280;59836;52.132;5.442;2022-12-08T02:06:18;101061.03;;;3.61;95.12
71966;BME280;59836;52.132;5.442;2022-12-08T02:08:45;101050.75;;;3.58;95.17
71966;BME280;59836;52.132;5.442;2022-12-08T02:11:12;101050.75;;;3.58;95.22
71966;BME280;59836;52.132;5.442;2022-12-08T02:13:40;101050.13;;;3.56;95.26
71966;BME280;59836;52.132;5.442;2022-12-08T02:16:26;101049.09;;;3.57;95.13
71966;BME280;59836;52.132;5.442;2022-12-08T02:19:03;101036.72;;;3.56;94.84
71966;BME280;59836;52.132;5.442;2022-12-08T02:22:03;101032.16;;;3.56;95.00
71966;BME280;59836;52.132;5.442;2022-12-08T02:28:19;101031.38;;;3.56;95.17
71966;BME280;59836;52.132;5.442;2022-12-08T02:31:04;101024.34;;;3.54;94.98
71966;BME280;59836;52.132;5.442;2022-12-08T02:37:29;101019.81;;;3.55;94.86
71966;BME280;59836;52.132;5.442;2022-12-08T02:39:39;101011.56;;;3.57;95.13
71966;BME280;59836;52.132;5.442;2022-12-08T02:42:20;101010.72;;;3.56;95.28
71966;BME280;59836;52.132;5.442;2022-12-08T02:44:56;101022.28;;;3.57;95.48
71966;BME280;59836;52.132;5.442;2022-12-08T02:47:26;101010.50;;;3.58;95.23
71966;BME280;59836;52.132;5.442;2022-12-08T02:49:57;101007.00;;;3.57;95.54
71966;BME280;59836;52.132;5.442;2022-12-08T03:00:10;100984.50;;;3.58;95.74
71966;BME280;59836;52.132;5.442;2022-12-08T03:03:05;100978.34;;;3.58;95.43
71966;BME280;59836;52.132;5.442;2022-12-08T03:05:51;100978.09;;;3.59;95.81
71966;BME280;59836;52.132;5.442;2022-12-08T03:08:47;100967.59;;;3.58;95.79
71966;BME280;59836;52.132;5.442;2022-12-08T03:11:24;100978.94;;;3.60;95.51
71966;BME280;59836;52.132;5.442;2022-12-08T03:13:54;100976.03;;;3.61;95.52
71966;BME280;59836;52.132;5.442;2022-12-08T03:16:26;100975.81;;;3.63;95.75
71966;BME280;59836;52.132;5.442;2022-12-08T03:21:46;100983.44;;;3.66;95.70
71966;BME280;59836;52.132;5.442;2022-12-08T03:24:16;100980.50;;;3.67;95.67
71966;BME280;59836;52.132;5.442;2022-12-08T03:26:48;100978.44;;;3.69;95.68
71966;BME280;59836;52.132;5.442;2022-12-08T03:29:16;100975.50;;;3.71;95.56
71966;BME280;59836;52.132;5.442;2022-12-08T03:31:54;100978.78;;;3.73;95.89
71966;BME280;59836;52.132;5.442;2022-12-08T03:34:25;100962.69;;;3.73;95.67
71966;BME280;59836;52.132;5.442;2022-12-08T03:36:53;100968.91;;;3.74;95.77
71966;BME280;59836;52.132;5.442;2022-12-08T03:39:19;100962.69;;;3.73;95.60
71966;BME280;59836;52.132;5.442;2022-12-08T03:41:46;100957.34;;;3.73;95.67
71966;BME280;59836;52.132;5.442;2022-12-08T03:44:12;100957.34;;;3.73;95.66
71966;BME280;59836;52.132;5.442;2022-12-08T03:46:39;100943.31;;;3.71;96.09
71966;BME280;59836;52.132;5.442;2022-12-08T03:49:05;100940.06;;;3.69;96.16
71966;BME280;59836;52.132;5.442;2022-12-08T03:51:31;100942.16;;;3.67;95.83
71966;BME280;59836;52.132;5.442;2022-12-08T03:53:58;100938.44;;;3.68;95.74
71966;BME280;59836;52.132;5.442;2022-12-08T03:56:35;100935.16;;;3.66;95.82
71966;BME280;59836;52.132;5.442;2022-12-08T03:59:03;100938.03;;;3.64;95.48
71966;BME280;59836;52.132;5.442;2022-12-08T04:01:29;100925.66;;;3.63;95.75
71966;BME280;59836;52.132;5.442;2022-12-08T04:03:56;100935.78;;;3.61;95.55
71966;BME280;59836;52.132;5.442;2022-12-08T04:06:23;100941.38;;;3.60;95.94
71966;BME280;59836;52.132;5.442;2022-12-08T04:08:50;100939.50;;;3.60;95.88
71966;BME280;59836;52.132;5.442;2022-12-08T04:11:18;100946.75;;;3.60;95.43
71966;BME280;59836;52.132;5.442;2022-12-08T04:13:45;100935.44;;;3.58;95.39
71966;BME280;59836;52.132;5.442;2022-12-08T04:16:20;100927.38;;;3.58;95.71
71966;BME280;59836;52.132;5.442;2022-12-08T04:18:47;100939.75;;;3.59;95.66
71966;BME280;59836;52.132;5.442;2022-12-08T04:21:14;100926.78;;;3.56;95.64
71966;BME280;59836;52.132;5.442;2022-12-08T04:23:40;100926.78;;;3.56;95.45
71966;BME280;59836;52.132;5.442;2022-12-08T04:26:07;100922.47;;;3.54;95.47
71966;BME280;59836;52.132;5.442;2022-12-08T04:28:34;100919.19;;;3.52;95.26
71966;BME280;59836;52.132;5.442;2022-12-08T04:31:00;100913.22;;;3.50;95.60
71966;BME280;59836;52.132;5.442;2022-12-08T04:33:27;100918.34;;;3.52;95.72
71966;BME280;59836;52.132;5.442;2022-12-08T04:35:53;100916.50;;;3.52;95.35
71966;BME280;59836;52.132;5.442;2022-12-08T04:38:19;100922.91;;;3.51;95.70
71966;BME280;59836;52.132;5.442;2022-12-08T04:40:46;100913.81;;;3.52;95.53
71966;BME280;59836;52.132;5.442;2022-12-08T04:43:12;100918.13;;;3.53;95.23
71966;BME280;59836;52.132;5.442;2022-12-08T04:45:40;100913.81;;;3.52;95.50
71966;BME280;59836;52.132;5.442;2022-12-08T04:48:08;100897.72;;;3.52;95.60
71966;BME280;59836;52.132;5.442;2022-12-08T04:50:34;100913.81;;;3.52;95.75
71966;BME280;59836;52.132;5.442;2022-12-08T04:53:01;100913.81;;;3.52;95.65
71966;BME280;59836;52.132;5.442;2022-12-08T04:55:27;100916.06;;;3.56;95.94
71966;BME280;59836;52.132;5.442;2022-12-08T04:57:53;100908.00;;;3.56;95.69
71966;BME280;59836;52.132;5.442;2022-12-08T05:00:20;100909.66;;;3.57;95.62
71966;BME280;59836;52.132;5.442;2022-12-08T05:02:46;100906.38;;;3.54;95.91
71966;BME280;59836;52.132;5.442;2022-12-08T05:05:13;100904.72;;;3.53;95.98
71966;BME280;59836;52.132;5.442;2022-12-08T05:07:39;100907.63;;;3.52;95.82
71966;BME280;59836;52.132;5.442;2022-12-08T05:10:07;100908.00;;;3.56;96.10
71966;BME280;59836;52.132;5.442;2022-12-08T05:12:33;100911.28;;;3.58;96.20
71966;BME280;59836;52.132;5.442;2022-12-08T05:14:59;100902.22;;;3.59;95.99
71966;BME280;59836;52.132;5.442;2022-12-08T05:17:26;100903.84;;;3.60;95.89
71966;BME280;59836;52.132;5.442;2022-12-08T05:19:52;100911.06;;;3.59;95.91
71966;BME280;59836;52.132;5.442;2022-12-08T05:22:19;100914.56;;;3.60;95.80
71966;BME280;59836;52.132;5.442;2022-12-08T05:24:45;100908.63;;;3.58;95.64
71966;BME280;59836;52.132;5.442;2022-12-08T05:27:13;100905.94;;;3.58;95.56
71966;BME280;59836;52.132;5.442;2022-12-08T05:29:40;100909.66;;;3.57;96.03
71966;BME280;59836;52.132;5.442;2022-12-08T05:32:06;100902.66;;;3.56;95.37
71966;BME280;59836;52.132;5.442;2022-12-08T05:34:32;100907.19;;;3.55;95.35
71966;BME280;59836;52.132;5.442;2022-12-08T05:36:59;100907.19;;;3.55;95.19
71966;BME280;59836;52.132;5.442;2022-12-08T05:39:25;100904.72;;;3.53;95.48
71966;BME280;59836;52.132;5.442;2022-12-08T05:41:52;100903.09;;;3.52;95.04
71966;BME280;59836;52.132;5.442;2022-12-08T05:44:18;100905.16;;;3.50;95.67
71966;BME280;59836;52.132;5.442;2022-12-08T05:46:44;100886.59;;;3.49;95.17
71966;BME280;59836;52.132;5.442;2022-12-08T05:49:11;100894.88;;;3.47;95.12
71966;BME280;59836;52.132;5.442;2022-12-08T05:51:37;100893.84;;;3.48;95.53
71966;BME280;59836;52.132;5.442;2022-12-08T05:54:04;100890.31;;;3.48;95.13
71966;BME280;59836;52.132;5.442;2022-12-08T05:56:30;100882.53;;;3.46;95.01
71966;BME280;59836;52.132;5.442;2022-12-08T05:58:57;100893.25;;;3.46;95.22
71966;BME280;59836;52.132;5.442;2022-12-08T06:01:28;100894.28;;;3.45;95.49
71966;BME280;59836;52.132;5.442;2022-12-08T06:04:00;100891.59;;;3.45;95.70
71966;BME280;59836;52.132;5.442;2022-12-08T06:06:27;100886.25;;;3.45;95.62
71966;BME280;59836;52.132;5.442;2022-12-08T06:08:54;100894.50;;;3.44;95.64
71966;BME280;59836;52.132;5.442;2022-12-08T06:11:27;100889.72;;;3.46;95.26
71966;BME280;59836;52.132;5.442;2022-12-08T06:13:54;100889.97;;;3.44;95.44
71966;BME280;59836;52.132;5.442;2022-12-08T06:16:23;100885.63;;;3.43;95.50
71966;BME280;59836;52.132;5.442;2022-12-08T06:18:49;100878.84;;;3.40;95.58
71966;BME280;59836;52.132;5.442;2022-12-08T06:21:16;100882.38;;;3.41;95.46
71966;BME280;59836;52.132;5.442;2022-12-08T06:23:46;100883.41;;;3.40;95.64
71966;BME280;59836;52.132;5.442;2022-12-08T06:26:13;100883.41;;;3.40;95.61
71966;BME280;59836;52.132;5.442;2022-12-08T06:28:40;100871.63;;;3.41;95.74
71966;BME280;59836;52.132;5.442;2022-12-08T06:31:17;100871.84;;;3.39;95.68
71966;BME280;59836;52.132;5.442;2022-12-08T06:33:44;100880.94;;;3.38;95.55
71966;BME280;59836;52.132;5.442;2022-12-08T06:36:13;100881.75;;;3.39;95.73
71966;BME280;59836;52.132;5.442;2022-12-08T06:38:40;100886.28;;;3.38;95.41
71966;BME280;59836;52.132;5.442;2022-12-08T06:41:09;100892.47;;;3.39;95.62
71966;BME280;59836;52.132;5.442;2022-12-08T06:43:36;100889.81;;;3.39;95.48
71966;BME280;59836;52.132;5.442;2022-12-08T06:46:05;100888.97;;;3.38;95.73
71966;BME280;59836;52.132;5.442;2022-12-08T06:48:31;100893.72;;;3.36;95.46
71966;BME280;59836;52.132;5.442;2022-12-08T06:51:12;100889.66;;;3.34;95.34
71966;BME280;59836;52.132;5.442;2022-12-08T06:53:40;100891.28;;;3.35;95.38
71966;BME280;59836;52.132;5.442;2022-12-08T06:56:07;100885.91;;;3.35;95.40
71966;BME280;59836;52.132;5.442;2022-12-08T06:58:34;100894.41;;;3.32;95.60
71966;BME280;59836;52.132;5.442;2022-12-08T07:01:09;100893.81;;;3.30;95.10
71966;BME280;59836;52.132;5.442;2022-12-08T07:03:37;100887.59;;;3.29;95.05
71966;BME280;59836;52.132;5.442;2022-12-08T07:06:05;100885.97;;;3.28;95.61
71966;BME280;59836;52.132;5.442;2022-12-08T07:08:32;100887.00;;;3.27;95.35
71966;BME280;59836;52.132;5.442;2022-12-08T07:11:05;100886.41;;;3.25;95.24
71966;BME280;59836;52.132;5.442;2022-12-08T07:13:31;100885.59;;;3.24;95.39
71966;BME280;59836;52.132;5.442;2022-12-08T07:15:58;100881.28;;;3.23;94.72
71966;BME280;59836;52.132;5.442;2022-12-08T07:18:24;100900.47;;;3.20;94.90
71966;BME280;59836;52.132;5.442;2022-12-08T07:20:51;100891.84;;;3.18;95.06
71966;BME280;59836;52.132;5.442;2022-12-08T07:23:17;100892.88;;;3.17;94.79
71966;BME280;59836;52.132;5.442;2022-12-08T07:25:43;100889.81;;;3.14;94.61
71966;BME280;59836;52.132;5.442;2022-12-08T07:28:10;100892.72;;;3.12;94.88
71966;BME280;59836;52.132;5.442;2022-12-08T07:30:37;100888.19;;;3.13;94.81
71966;BME280;59836;52.132;5.442;2022-12-08T07:33:04;100888.38;;;3.11;95.03
71966;BME280;59836;52.132;5.442;2022-12-08T07:35:31;100885.09;;;3.09;94.71
71966;BME280;59836;52.132;5.442;2022-12-08T07:38:00;100885.34;;;3.07;94.96
71966;BME280;59836;52.132;5.442;2022-12-08T07:40:27;100889.84;;;3.07;95.25
71966;BME280;59836;52.132;5.442;2022-12-08T07:42:53;100886.97;;;3.08;95.09
71966;BME280;59836;52.132;5.442;2022-12-08T07:45:20;100890.47;;;3.09;95.16
71966;BME280;59836;52.132;5.442;2022-12-08T07:47:46;100889.84;;;3.07;94.83
71966;BME280;59836;52.132;5.442;2022-12-08T07:50:12;100888.22;;;3.06;94.82
71966;BME280;59836;52.132;5.442;2022-12-08T07:52:39;100892.78;;;3.05;95.15
71966;BME280;59836;52.132;5.442;2022-12-08T07:55:06;100889.25;;;3.05;94.84
71966;BME280;59836;52.132;5.442;2022-12-08T07:57:32;100889.25;;;3.05;95.02
71966;BME280;59836;52.132;5.442;2022-12-08T07:59:58;100895.66;;;3.04;94.95
71966;BME280;59836;52.132;5.442;2022-12-08T08:02:25;100889.06;;;3.06;95.00
71966;BME280;59836;52.132;5.442;2022-12-08T08:04:51;100881.22;;;3.05;95.05
71966;BME280;59836;52.132;5.442;2022-12-08T08:07:18;100888.44;;;3.04;94.85
71966;BME280;59836;52.132;5.442;2022-12-08T08:09:45;100888.44;;;3.04;94.71
71966;BME280;59836;52.132;5.442;2022-12-08T08:12:11;100883.53;;;3.01;94.54
71966;BME280;59836;52.132;5.442;2022-12-08T08:14:59;100885.38;;;3.01;95.08
71966;BME280;59836;52.132;5.442;2022-12-08T08:17:27;100888.06;;;3.01;94.54
71966;BME280;59836;52.132;5.442;2022-12-08T08:19:53;100889.09;;;3.00;94.94
71966;BME280;59836;52.132;5.442;2022-12-08T08:22:20;100898.56;;;3.02;94.81
71966;BME280;59836;52.132;5.442;2022-12-08T08:24:46;100896.09;;;3.01;95.10
71966;BME280;59836;52.132;5.442;2022-12-08T08:27:12;100895.28;;;3.00;94.77
71966;BME280;59836;52.132;5.442;2022-12-08T08:29:39;100906.00;;;3.00;94.72
71966;BME280;59836;52.132;5.442;2022-12-08T08:32:05;100905.16;;;3.00;94.61
71966;BME280;59836;52.132;5.442;2022-12-08T08:34:32;100906.00;;;3.00;94.95
71966;BME280;59836;52.132;5.442;2022-12-08T08:36:58;100906.81;;;3.01;94.72
71966;BME280;59836;52.132;5.442;2022-12-08T08:39:25;100916.72;;;3.00;94.52
71966;BME280;59836;52.132;5.442;2022-12-08T08:41:51;100909.72;;;2.99;94.68
71966;BME280;59836;52.132;5.442;2022-12-08T08:44:18;100920.44;;;2.99;94.33
71966;BME280;59836;52.132;5.442;2022-12-08T08:46:44;100907.25;;;2.98;94.69
71966;BME280;59836;52.132;5.442;2022-12-08T08:49:10;100906.81;;;3.01;94.79
71966;BME280;59836;52.132;5.442;2022-12-08T08:51:37;100908.88;;;2.99;94.63
71966;BME280;59836;52.132;5.442;2022-12-08T08:54:03;100917.53;;;3.01;94.97
71966;BME280;59836;52.132;5.442;2022-12-08T08:56:30;100914.25;;;2.99;94.67
71966;BME280;59836;52.132;5.442;2022-12-08T08:58:56;100911.56;;;2.99;94.92
71966;BME280;59836;52.132;5.442;2022-12-08T09:01:26;100902.47;;;3.00;94.77
71966;BME280;59836;52.132;5.442;2022-12-08T09:03:53;100905.16;;;3.00;94.80
71966;BME280;59836;52.132;5.442;2022-12-08T09:06:20;100903.69;;;3.04;95.06
71966;BME280;59836;52.132;5.442;2022-12-08T09:08:47;100905.16;;;3.00;94.97
71966;BME280;59836;52.132;5.442;2022-12-08T09:11:15;100903.09;;;3.02;94.64
71966;BME280;59836;52.132;5.442;2022-12-08T09:13:41;100899.38;;;3.03;94.73
71966;BME280;59836;52.132;5.442;2022-12-08T09:16:08;100913.81;;;3.02;94.86
71966;BME280;59836;52.132;5.442;2022-12-08T09:18:35;100911.72;;;3.04;94.79
71966;BME280;59836;52.132;5.442;2022-12-08T09:21:04;100901.63;;;3.06;94.59
71966;BME280;59836;52.132;5.442;2022-12-08T09:23:31;100899.34;;;3.09;94.93
71966;BME280;59836;52.132;5.442;2022-12-08T09:26:01;100896.84;;;3.08;94.98
71966;BME280;59836;52.132;5.442;2022-12-08T09:28:28;100900.97;;;3.10;94.67
71966;BME280;59836;52.132;5.442;2022-12-08T09:30:54;100897.47;;;3.10;94.78
71966;BME280;59836;52.132;5.442;2022-12-08T09:33:20;100904.91;;;3.08;94.74
71966;BME280;59836;52.132;5.442;2022-12-08T09:35:47;100903.84;;;3.09;94.77
71966;BME280;59836;52.132;5.442;2022-12-08T09:38:14;100900.13;;;3.10;94.81
71966;BME280;59836;52.132;5.442;2022-12-08T09:41:00;100899.09;;;3.11;94.86
71966;BME280;59836;52.132;5.442;2022-12-08T09:43:45;100903.66;;;3.10;94.56
71966;BME280;59836;52.132;5.442;2022-12-08T09:46:17;100902.63;;;3.12;94.74
71966;BME280;59836;52.132;5.442;2022-12-08T09:48:49;100908.34;;;3.15;94.45
71966;BME280;59836;52.132;5.442;2022-12-08T09:51:24;100905.66;;;3.15;94.57
71966;BME280;59836;52.132;5.442;2022-12-08T09:53:54;100901.75;;;3.18;94.58
71966;BME280;59836;52.132;5.442;2022-12-08T09:56:32;100912.84;;;3.21;94.91
71966;BME280;59836;52.132;5.442;2022-12-08T09:59:05;100907.47;;;3.21;94.74
71966;BME280;59836;52.132;5.442;2022-12-08T10:01:38;100907.47;;;3.21;94.72
71966;BME280;59836;52.132;5.442;2022-12-08T10:04:19;100914.47;;;3.22;94.80
71966;BME280;59836;52.132;5.442;2022-12-08T10:06:59;100914.03;;;3.25;94.73
71966;BME280;59836;52.132;5.442;2022-12-08T10:12:30;100907.63;;;3.27;94.75
71966;BME280;59836;52.132;5.442;2022-12-08T10:18:01;100909.66;;;3.31;94.54
71966;BME280;59836;52.132;5.442;2022-12-08T10:20:40;100904.09;;;3.33;94.72
71966;BME280;59836;52.132;5.442;2022-12-08T10:23:14;100893.38;;;3.33;94.42
71966;BME280;59836;52.132;5.442;2022-12-08T10:25:48;100901.16;;;3.34;94.59
71966;BME280;59836;52.132;5.442;2022-12-08T10:28:15;100893.13;;;3.34;94.57
71966;BME280;59836;52.132;5.442;2022-12-08T10:30:42;100898.28;;;3.36;94.53
71966;BME280;59836;52.132;5.442;2022-12-08T10:33:13;100896.22;;;3.38;94.63
71966;BME280;59836;52.132;5.442;2022-12-08T10:35:43;100890.84;;;3.38;94.63
71966;BME280;59836;52.132;5.442;2022-12-08T10:38:30;100895.38;;;3.37;94.64
71966;BME280;59836;52.132;5.442;2022-12-08T10:41:13;100890.84;;;3.38;94.71
71966;BME280;59836;52.132;5.442;2022-12-08T10:43:43;100881.16;;;3.37;94.70
71966;BME280;59836;52.132;5.442;2022-12-08T10:46:14;100881.38;;;3.35;94.57
71966;BME280;59836;52.132;5.442;2022-12-08T10:48:50;100876.84;;;3.36;94.53
71966;BME280;59836;52.132;5.442;2022-12-08T10:51:36;100881.16;;;3.37;94.64
71966;BME280;59836;52.132;5.442;2022-12-08T10:54:03;100886.28;;;3.38;94.96
71966;BME280;59836;52.132;5.442;2022-12-08T10:56:31;100870.00;;;3.40;94.72
71966;BME280;59836;52.132;5.442;2022-12-08T10:59:18;100878.03;;;3.40;94.43
71966;BME280;59836;52.132;5.442;2022-12-08T11:01:47;100880.13;;;3.38;94.90
71966;BME280;59836;52.132;5.442;2022-12-08T11:04:18;100880.13;;;3.38;94.72
71966;BME280;59836;52.132;5.442;2022-12-08T11:06:46;100876.41;;;3.39;94.78
71966;BME280;59836;52.132;5.442;2022-12-08T11:11:56;100880.13;;;3.38;94.39
71966;BME280;59836;52.132;5.442;2022-12-08T11:14:25;100879.28;;;3.37;94.61
71966;BME280;59836;52.132;5.442;2022-12-08T11:16:55;100880.56;;;3.35;94.47
71966;BME280;59836;52.132;5.442;2022-12-08T11:19:27;100880.56;;;3.35;94.43
71966;BME280;59836;52.132;5.442;2022-12-08T11:21:54;100871.09;;;3.32;94.24
71966;BME280;59836;52.132;5.442;2022-12-08T11:24:25;100878.91;;;3.34;94.43
71966;BME280;59836;52.132;5.442;2022-12-08T11:27:01;100871.91;;;3.33;94.41
71966;BME280;59836;52.132;5.442;2022-12-08T11:29:31;100861.63;;;3.30;94.45
71966;BME280;59836;52.132;5.442;2022-12-08T11:32:11;100861.63;;;3.30;94.47
71966;BME280;59836;52.132;5.442;2022-12-08T11:37:38;100844.78;;;3.22;94.29
71966;BME280;59836;52.132;5.442;2022-12-08T11:40:19;100838.00;;;3.20;94.18
71966;BME280;59836;52.132;5.442;2022-12-08T11:42:55;100837.19;;;3.19;94.19
71966;BME280;59836;52.132;5.442;2022-12-08T11:45:31;100831.84;;;3.19;94.26
71966;BME280;59836;52.132;5.442;2022-12-08T11:48:05;100829.97;;;3.20;94.57
71966;BME280;59836;52.132;5.442;2022-12-08T11:50:41;100830.34;;;3.23;94.20
71966;BME280;59836;52.132;5.442;2022-12-08T11:53:15;100827.44;;;3.25;94.31
71966;BME280;59836;52.132;5.442;2022-12-08T11:55:57;100821.28;;;3.24;93.90
71966;BME280;59836;52.132;5.442;2022-12-08T11:58:32;100817.16;;;3.22;94.19
71966;BME280;59836;52.132;5.442;2022-12-08T12:01:01;100817.16;;;3.22;94.23
71966;BME280;59836;52.132;5.442;2022-12-08T12:03:37;100819.03;;;3.21;94.38
71966;BME280;59836;52.132;5.442;2022-12-08T12:06:28;100819.63;;;3.23;94.51
71966;BME280;59836;52.132;5.442;2022-12-08T12:09:22;100812.19;;;3.25;94.07
71966;BME280;59836;52.132;5.442;2022-12-08T12:12:07;100819.19;;;3.27;94.03
71966;BME280;59836;52.132;5.442;2022-12-08T12:20:28;100813.75;;;3.33;93.97
71966;BME280;59836;52.132;5.442;2022-12-08T12:23:50;100802.22;;;3.33;93.75
71966;BME280;59836;52.132;5.442;2022-12-08T12:25:58;100803.03;;;3.33;93.69
71966;BME280;59836;52.132;5.442;2022-12-08T12:28:28;100800.59;;;3.32;93.71
71966;BME280;59836;52.132;5.442;2022-12-08T12:31:05;100802.59;;;3.36;93.71
71966;BME280;59836;52.132;5.442;2022-12-08T12:33:34;100795.38;;;3.37;93.87
71966;BME280;59836;52.132;5.442;2022-12-08T12:36:04;100795.97;;;3.39;93.82
71966;BME280;59836;52.132;5.442;2022-12-08T12:38:47;100795.97;;;3.39;93.61
71966;BME280;59836;52.132;5.442;2022-12-08T12:46:58;100784.09;;;3.28;93.30
71966;BME280;59836;52.132;5.442;2022-12-08T12:54:41;100782.84;;;3.31;93.94
71966;BME280;59836;52.132;5.442;2022-12-08T12:59:46;100789.41;;;3.35;94.10
71966;BME280;59836;52.132;5.442;2022-12-08T13:04:57;100784.66;;;3.37;93.78
71966;BME280;59836;52.132;5.442;2022-12-08T13:07:27;100778.25;;;3.38;94.15
71966;BME280;59836;52.132;5.442;2022-12-08T13:09:59;100776.16;;;3.40;93.95
71966;BME280;59836;52.132;5.442;2022-12-08T13:12:26;100779.66;;;3.40;94.11
71966;BME280;59836;52.132;5.442;2022-12-08T13:14:59;100774.88;;;3.43;93.83
71966;BME280;59836;52.132;5.442;2022-12-08T13:17:29;100776.75;;;3.42;93.85
71966;BME280;59836;52.132;5.442;2022-12-08T13:19:59;100776.97;;;3.40;94.15
71966;BME280;59836;52.132;5.442;2022-12-08T13:23:02;100779.66;;;3.40;94.14
71966;BME280;59836;52.132;5.442;2022-12-08T13:30:46;100773.03;;;3.43;94.03
71966;BME280;59836;52.132;5.442;2022-12-08T13:33:17;100772.44;;;3.41;93.84
71966;BME280;59836;52.132;5.442;2022-12-08T13:35:50;100771.41;;;3.42;93.96
71966;BME280;59836;52.132;5.442;2022-12-08T13:38:20;100760.09;;;3.40;94.16
71966;BME280;59836;52.132;5.442;2022-12-08T13:40:48;100760.72;;;3.35;94.17
71966;BME280;59836;52.132;5.442;2022-12-08T13:43:25;100763.66;;;3.34;93.90
71966;BME280;59836;52.132;5.442;2022-12-08T13:46:11;100769.22;;;3.32;93.91
71966;BME280;59836;52.132;5.442;2022-12-08T13:48:59;100767.81;;;3.30;93.78
71966;BME280;59836;52.132;5.442;2022-12-08T13:51:46;100766.19;;;3.29;93.59
71966;BME280;59836;52.132;5.442;2022-12-08T13:54:34;100770.09;;;3.26;93.69
71966;BME280;59836;52.132;5.442;2022-12-08T13:57:27;100770.34;;;3.24;93.67
71966;BME280;59836;52.132;5.442;2022-12-08T13:59:59;100770.09;;;3.26;93.71
71966;BME280;59836;52.132;5.442;2022-12-08T14:02:40;100765.34;;;3.28;93.69
71966;BME280;59836;52.132;5.442;2022-12-08T14:05:14;100769.22;;;3.32;93.99
71966;BME280;59836;52.132;5.442;2022-12-08T14:07:45;100774.38;;;3.34;94.17
71966;BME280;59836;52.132;5.442;2022-12-08T14:10:19;100771.25;;;3.37;94.01
71966;BME280;59836;52.132;5.442;2022-12-08T14:12:54;100778.25;;;3.38;93.85
71966;BME280;59836;52.132;5.442;2022-12-08T14:15:24;100778.25;;;3.38;94.02
71966;BME280;59836;52.132;5.442;2022-12-08T14:17:52;100781.53;;;3.40;94.19